الصفحة الرئيسية
METAR-TAF:

METAR-TAF

مطار :

مطار سان فرانسيسكو الدولي

سان فرانسيسكو, كاليفورنيا, الولايات المتحدة

دائرة عرض: 37-37-11N, خط طول: 122-21-53W, ارتفاع: 3 متر

مراقبة الطقس الحالي

تاريخ ووقت الإصدار 1ساعة و 7 دقيقة قبل الساعة 02:56UTC
ريح 5 عقدة من الشمال الغربي
درجة الحرارة 13°درجة مئوية
الرطوبة 51%
ضغط 1027 hPa
الرؤية: 16.1 كم
غيوم قليلة على ارتفاع 18000 قدم

METAR: KSFO 240256Z 31005KT 10SM FEW180 13/03 A3033 RMK AO2 SLP269 T01330033 53002

زمن: 20:03 (04:03 UTC)

توقعات

تاريخ ووقت الإصدار 1ساعة و 7 دقيقة قبل الساعة 02:56UTC
التوقعات صالحة من24 الساعة 03 UTC إلى 25 الساعة 06 UTC
ريح 6 عقدة من الشمال
الرؤية: 10 كم
غيوم متفرقة على ارتفاع 20000 قدم
من 24 الساعة 0600 UTC
ريح 4 عقدة من الشمال الغربي
الرؤية: 10 كم
غيوم متفرقة على ارتفاع 20000 قدم
من 24 الساعة 1500 UTC
ريح عقدة من الشمال
الرؤية: 10 كم
غيوم قليلة على ارتفاع 20000 قدم
من 24 الساعة 2000 UTC
ريح 5 عقدة من الشمال/الشمال الغربي
الرؤية: 10 كم
سماء صافية

TAF: KSFO 240256Z 2403/2506 35006KT P6SM SCT200 FM240600 31004KT P6SM SCT200 FM241500 00000KT P6SM FEW200 FM242000 33005KT P6SM SKC

أرصاد الطقس والتوقعات من أكثر من 4000 مطار (تقارير الطقس للمطار METAR والتنبؤ بالطقس بالمطارTAF).

المحطات المتاحة هي النقط الصفراء والحمراء على الخريطة.

حرك المؤشر فوق النقطة لمعرفة اسم المحطة.

ثم انقر لمعرفة أرصاد وتوقعات الطقس.

لتغيير الخارطة: اضغط على الأزرار الخضراء مع رمز الصليب الأسود للتكبير. على الزر الأخضر مع شرطة للتصغير، أو على الأسهم الخضراء للخرائط المجاورة.


METAR-TAF: